Time;durP1;ratioP1;P1;durP2;ratioP2;P2;SDS_P1;SDS_P2;PMS_P1;PMS_P2;Temp;Humidity;BMP_temperature;BMP_pressure;BME280_temperature;BME280_humidity;BME280_pressure;Samples;Min_cycle;Max_cycle;Signal;HPM_P1;HPM_P2
2023/09/27 00:00:36;;;;;;;;;;;13.60;57.30;;;9.27;100.00;95989.06;5030485;28;19919;-43
2023/09/27 00:03:03;;;;;;;;;;;13.60;57.40;;;9.24;100.00;95992.22;5029018;28;19912;-43
2023/09/27 00:05:29;;;;;;;;;;;13.50;57.40;;;9.25;100.00;95993.03;5030709;28;19912;-42
2023/09/27 00:07:56;;;;;;;;;;;13.50;57.40;;;9.24;100.00;95986.06;5029865;28;19909;-51
2023/09/27 00:10:22;;;;;;;;;;;13.50;57.50;;;9.20;100.00;95980.44;5025970;28;19916;-43
2023/09/27 00:12:48;;;;;;;;;;;13.50;57.50;;;9.18;100.00;95982.56;5030384;28;20003;-42
2023/09/27 00:15:15;;;;;;;;;;;13.50;57.60;;;9.15;100.00;95980.41;5029329;28;19991;-46
2023/09/27 00:17:43;;;;;;;;;;;13.40;57.60;;;9.05;100.00;95977.59;5030093;28;19963;-43
2023/09/27 00:20:15;;;;;;;;;;;13.50;57.70;;;9.11;100.00;95973.16;5030154;28;19912;-44
2023/09/27 00:22:43;;;;;;;;;;;13.40;57.70;;;9.10;100.00;95968.91;5021195;28;19909;-50
2023/09/27 00:25:11;;;;;;;;;;;13.40;58.40;;;9.01;100.00;95973.81;5030357;28;20335;-47
2023/09/27 00:27:37;;;;;;;;;;;13.40;57.70;;;8.98;100.00;95966.34;5030407;28;19973;-47
2023/09/27 00:30:07;;;;;;;;;;;13.30;57.70;;;8.92;100.00;95969.97;5029576;28;19916;-47
2023/09/27 00:32:33;;;;;;;;;;;13.30;57.80;;;8.92;100.00;95962.78;5030203;28;19909;-48
2023/09/27 00:34:59;;;;;;;;;;;13.30;57.90;;;8.95;100.00;95953.53;5024007;28;19908;-46
2023/09/27 00:37:27;;;;;;;;;;;13.30;57.90;;;8.94;100.00;95951.94;5033394;28;20387;-50
2023/09/27 00:39:55;;;;;;;;;;;13.30;58.00;;;8.94;100.00;95949.28;5032076;28;19997;-45
2023/09/27 00:42:21;;;;;;;;;;;13.20;58.10;;;8.95;100.00;95951.69;5028935;28;20493;-50
2023/09/27 00:44:46;;;;;;;;;;;13.20;58.20;;;8.90;100.00;95951.63;5032446;28;20003;-48
2023/09/27 00:47:13;;;;;;;;;;;13.20;58.20;;;8.90;100.00;95945.47;5034040;28;20058;-48
2023/09/27 00:49:40;;;;;;;;;;;13.20;58.30;;;8.87;100.00;95945.97;5033238;28;19920;-46
2023/09/27 00:52:06;;;;;;;;;;;13.20;58.30;;;8.81;100.00;95950.44;5032897;28;19915;-49
2023/09/27 00:54:34;;;;;;;;;;;13.20;58.30;;;8.83;100.00;95952.84;5033664;28;20007;-50
2023/09/27 00:57:02;;;;;;;;;;;13.20;58.40;;;8.89;100.00;95957.16;5032765;28;20291;-47
2023/09/27 00:59:29;;;;;;;;;;;13.20;58.40;;;8.86;100.00;95957.66;5033083;28;20482;-47
2023/09/27 01:01:56;;;;;;;;;;;13.20;58.40;;;8.85;100.00;95969.34;5033712;28;20384;-46
2023/09/27 01:04:22;;;;;;;;;;;13.20;58.40;;;8.88;100.00;95967.00;5018091;28;19916;-47
2023/09/27 01:06:49;;;;;;;;;;;13.10;58.40;;;8.89;100.00;95968.59;5033681;28;20252;-46
2023/09/27 01:09:16;;;;;;;;;;;13.10;58.50;;;8.85;100.00;95969.34;5014141;28;19920;-44
2023/09/27 01:11:46;;;;;;;;;;;13.10;58.50;;;8.82;100.00;95965.31;5033376;28;19919;-44
2023/09/27 01:14:13;;;;;;;;;;;13.10;58.50;;;8.79;100.00;95963.16;5016242;28;19916;-44
2023/09/27 01:16:38;;;;;;;;;;;13.10;58.60;;;8.76;100.00;95964.44;5025286;28;20380;-42
2023/09/27 01:19:04;;;;;;;;;;;13.10;58.50;;;8.75;100.00;95967.34;5032843;28;19917;-49
2023/09/27 01:21:31;;;;;;;;;;;13.10;58.60;;;8.70;100.00;95960.09;5033051;28;19916;-48
2023/09/27 01:23:58;;;;;;;;;;;13.10;58.70;;;8.72;100.00;95955.34;5032739;28;19916;-49
2023/09/27 01:26:25;;;;;;;;;;;13.10;58.80;;;8.66;100.00;95953.66;5033163;28;19909;-44
2023/09/27 01:28:51;;;;;;;;;;;13.00;58.70;;;8.63;100.00;95953.34;5014176;28;19916;-46
2023/09/27 01:31:17;;;;;;;;;;;13.00;58.60;;;8.60;100.00;95951.19;5015863;28;20501;-45
2023/09/27 01:33:43;;;;;;;;;;;13.00;58.70;;;8.57;100.00;95953.25;5031983;28;20342;-48
2023/09/27 01:36:09;;;;;;;;;;;13.00;58.90;;;8.53;100.00;95948.69;5032855;28;19909;-48
2023/09/27 01:38:34;;;;;;;;;;;13.00;58.90;;;8.52;100.00;95958.50;5031899;28;20264;-48
2023/09/27 01:41:00;;;;;;;;;;;12.90;58.90;;;8.55;100.00;95960.69;5026842;28;20394;-49
2023/09/27 01:43:26;;;;;;;;;;;12.90;58.90;;;8.54;100.00;95967.03;5024998;28;19912;-49
2023/09/27 01:45:52;;;;;;;;;;;12.90;59.00;;;8.46;100.00;95967.44;5031997;28;19931;-47
2023/09/27 01:48:19;;;;;;;;;;;12.90;58.90;;;8.39;100.00;95969.44;5031385;28;20367;-48
2023/09/27 01:50:45;;;;;;;;;;;12.90;59.00;;;8.35;100.00;95971.75;5030783;28;19963;-49
2023/09/27 01:53:11;;;;;;;;;;;12.80;58.90;;;8.33;100.00;95967.72;5032012;28;19953;-47
2023/09/27 01:55:37;;;;;;;;;;;12.80;58.90;;;8.29;100.00;95971.91;5032568;28;19908;-45
2023/09/27 01:58:03;;;;;;;;;;;12.70;58.90;;;8.27;100.00;95966.00;5031956;28;19920;-46
2023/09/27 02:00:29;;;;;;;;;;;12.70;59.00;;;8.28;100.00;95965.78;5032623;28;19961;-44
2023/09/27 02:03:00;;;;;;;;;;;12.70;59.10;;;8.26;100.00;95967.88;5030702;28;19924;-43
2023/09/27 02:05:29;;;;;;;;;;;12.60;59.10;;;8.23;100.00;95963.03;5032756;28;19915;-47
2023/09/27 02:07:55;;;;;;;;;;;12.60;59.10;;;8.20;100.00;95966.16;5028218;28;19916;-46
2023/09/27 02:10:21;;;;;;;;;;;12.60;59.20;;;8.20;100.00;95970.69;5031576;28;19920;-47
2023/09/27 02:12:47;;;;;;;;;;;12.60;59.20;;;8.19;100.00;95964.56;5028497;28;20271;-43
2023/09/27 02:15:15;;;;;;;;;;;12.60;59.30;;;8.16;100.00;95967.69;5031324;28;20242;-44
2023/09/27 02:17:43;;;;;;;;;;;12.60;59.40;;;8.13;100.00;95972.69;5030467;28;19944;-43
2023/09/27 02:20:13;;;;;;;;;;;12.50;59.40;;;8.09;100.00;95978.47;5032786;28;20291;-44
2023/09/27 02:22:41;;;;;;;;;;;12.50;59.40;;;8.04;100.00;95978.38;5031418;28;19908;-43
2023/09/27 02:25:11;;;;;;;;;;;12.50;59.30;;;8.02;100.00;95980.47;5033127;28;19909;-43
2023/09/27 02:27:38;;;;;;;;;;;12.50;59.40;;;7.98;100.00;95973.22;5030490;28;19916;-45
2023/09/27 02:30:11;;;;;;;;;;;12.50;59.40;;;7.92;100.00;95976.81;5031916;28;19921;-46
2023/09/27 02:32:41;;;;;;;;;;;12.40;59.30;;;7.85;100.00;95982.28;5029066;28;20007;-43
2023/09/27 02:35:13;;;;;;;;;;;12.40;59.30;;;7.79;100.00;95984.00;5031908;28;19931;-52
2023/09/27 02:37:41;;;;;;;;;;;12.30;59.30;;;7.76;100.00;95983.69;5029871;28;19909;-44
2023/09/27 02:40:11;;;;;;;;;;;12.30;59.40;;;7.78;100.00;95986.91;5030703;28;19965;-41
2023/09/27 02:42:48;;;;;;;;;;;12.30;59.50;;;7.74;100.00;95983.94;5026360;28;19908;-41
2023/09/27 02:45:14;;;;;;;;;;;12.20;59.40;;;7.69;100.00;95975.88;5031133;28;19920;-41
2023/09/27 02:47:46;;;;;;;;;;;12.20;59.40;;;7.65;100.00;95980.06;5031101;28;20441;-41
2023/09/27 02:50:14;;;;;;;;;;;12.20;59.50;;;7.68;100.00;95981.41;5031635;28;19920;-43
2023/09/27 02:52:39;;;;;;;;;;;12.10;59.60;;;7.72;100.00;95985.22;5030488;28;20435;-44
2023/09/27 02:55:11;;;;;;;;;;;12.10;59.60;;;7.67;100.00;95971.84;5031371;28;19995;-41
2023/09/27 02:57:36;;;;;;;;;;;12.10;59.70;;;7.69;100.00;95972.44;5029882;28;19908;-42
2023/09/27 03:00:04;;;;;;;;;;;12.10;59.70;;;7.68;100.00;95973.44;5031277;28;19916;-41
2023/09/27 03:02:34;;;;;;;;;;;12.10;59.80;;;7.63;100.00;95988.22;5031362;28;19908;-42
2023/09/27 03:05:03;;;;;;;;;;;12.10;59.80;;;7.57;100.00;95986.50;5030016;28;19923;-41
2023/09/27 03:07:29;;;;;;;;;;;12.10;59.80;;;7.60;100.00;95990.53;5030692;28;20449;-44
2023/09/27 03:09:54;;;;;;;;;;;12.10;59.80;;;7.61;100.00;95989.50;5029846;28;19921;-42
2023/09/27 03:12:20;;;;;;;;;;;12.00;59.80;;;7.56;100.00;95994.72;5031699;28;19909;-42
2023/09/27 03:14:46;;;;;;;;;;;12.00;59.80;;;7.54;100.00;95994.13;5029738;28;19909;-41
2023/09/27 03:17:12;;;;;;;;;;;12.00;59.80;;;7.56;100.00;95997.38;5030606;28;19916;-42
2023/09/27 03:19:38;;;;;;;;;;;12.00;59.90;;;7.54;100.00;95997.59;5030580;28;19916;-50
2023/09/27 03:22:04;;;;;;;;;;;12.00;60.00;;;7.52;100.00;95998.84;5030016;28;19908;-48
2023/09/27 03:24:30;;;;;;;;;;;12.00;60.00;;;7.50;100.00;96001.75;5030675;28;20383;-48
2023/09/27 03:26:55;;;;;;;;;;;12.00;60.00;;;7.52;100.00;96012.13;5029365;28;19924;-49
2023/09/27 03:29:21;;;;;;;;;;;11.90;60.00;;;7.49;100.00;96012.59;5030741;28;19909;-49
2023/09/27 03:31:47;;;;;;;;;;;11.90;60.00;;;7.49;100.00;96005.47;5030982;28;19912;-45
2023/09/27 03:34:13;;;;;;;;;;;11.90;60.00;;;7.47;100.00;96001.44;5030122;28;19919;-45
2023/09/27 03:36:38;;;;;;;;;;;11.90;60.10;;;7.40;100.00;96001.56;5030652;28;20356;-47
2023/09/27 03:39:04;;;;;;;;;;;11.80;60.00;;;7.37;100.00;95997.53;5029036;28;19913;-49
2023/09/27 03:41:30;;;;;;;;;;;11.80;60.00;;;7.36;100.00;96005.69;5013029;28;19923;-47
2023/09/27 03:43:56;;;;;;;;;;;11.80;60.10;;;7.33;100.00;96001.69;5029967;28;19988;-47
2023/09/27 03:46:21;;;;;;;;;;;11.80;60.10;;;7.33;100.00;96009.63;5025780;28;19915;-45
2023/09/27 03:48:47;;;;;;;;;;;11.80;60.20;;;7.31;100.00;96013.56;5029519;28;19909;-44
2023/09/27 03:51:13;;;;;;;;;;;11.80;60.40;;;7.33;100.00;96009.63;5029753;28;19920;-43
2023/09/27 03:53:39;;;;;;;;;;;11.80;60.40;;;7.36;100.00;96014.47;5029004;28;19916;-41
2023/09/27 03:56:04;;;;;;;;;;;11.80;60.50;;;7.33;100.00;96012.28;5029909;28;20375;-41
2023/09/27 03:58:30;;;;;;;;;;;11.80;60.50;;;7.31;100.00;96014.34;5029407;28;19908;-43
2023/09/27 04:00:56;;;;;;;;;;;11.70;60.40;;;7.32;100.00;96015.16;5030268;28;19986;-41
2023/09/27 04:03:21;;;;;;;;;;;11.70;60.50;;;7.27;100.00;96009.75;5029518;28;19908;-41
2023/09/27 04:05:47;;;;;;;;;;;11.70;60.50;;;7.23;100.00;96014.72;5030001;28;19916;-41
2023/09/27 04:08:13;;;;;;;;;;;11.70;60.50;;;7.16;100.00;96014.03;5029533;28;19913;-41
2023/09/27 04:10:39;;;;;;;;;;;11.70;60.50;;;7.12;100.00;96011.03;5028929;28;19913;-44
2023/09/27 04:13:05;;;;;;;;;;;11.60;60.40;;;7.12;100.00;96005.75;5030575;28;19909;-41
2023/09/27 04:15:32;;;;;;;;;;;11.60;60.50;;;7.16;100.00;96000.78;5026729;28;19909;-42
2023/09/27 04:17:58;;;;;;;;;;;11.60;60.70;;;7.19;100.00;96000.31;5029013;28;19916;-42
2023/09/27 04:20:25;;;;;;;;;;;11.60;60.80;;;7.18;100.00;96009.31;5030100;28;20302;-45
2023/09/27 04:22:51;;;;;;;;;;;11.60;60.80;;;7.16;100.00;96009.53;5026077;28;19908;-43
2023/09/27 04:25:18;;;;;;;;;;;11.60;60.90;;;7.14;100.00;96011.59;5030098;28;19909;-41
2023/09/27 04:27:53;;;;;;;;;;;11.60;60.90;;;7.10;100.00;96005.16;5028721;28;19963;-42
2023/09/27 04:30:19;;;;;;;;;;;11.60;60.90;;;7.04;100.00;96021.97;5030532;28;19970;-44
2023/09/27 04:32:50;;;;;;;;;;;11.60;60.90;;;7.06;100.00;96024.41;5029337;28;20406;-46
2023/09/27 04:35:16;;;;;;;;;;;11.50;60.90;;;7.11;100.00;96027.16;5030233;28;19913;-43
2023/09/27 04:37:42;;;;;;;;;;;11.50;60.90;;;7.13;100.00;96028.53;5029121;28;19912;-42
2023/09/27 04:40:11;;;;;;;;;;;11.50;61.00;;;7.21;100.00;96037.16;5029022;28;20007;-43
2023/09/27 04:42:44;;;;;;;;;;;11.50;61.10;;;7.24;100.00;96040.19;5029933;28;20291;-47
2023/09/27 04:45:12;;;;;;;;;;;11.50;61.10;;;7.18;100.00;96039.25;5029032;28;19935;-43
2023/09/27 04:47:40;;;;;;;;;;;11.60;61.10;;;7.12;100.00;96039.38;5013933;28;19958;-43
2023/09/27 04:50:10;;;;;;;;;;;11.50;61.00;;;7.12;100.00;96037.53;5028364;28;19912;-43
2023/09/27 04:52:38;;;;;;;;;;;11.50;61.00;;;7.10;100.00;96036.94;5028980;28;19915;-45
2023/09/27 04:55:08;;;;;;;;;;;11.50;61.00;;;7.05;100.00;96030.72;5029876;28;20398;-46
2023/09/27 04:57:34;;;;;;;;;;;11.50;61.00;;;6.97;100.00;96034.53;5028624;28;19962;-46
2023/09/27 05:00:00;;;;;;;;;;;11.50;61.00;;;6.95;100.00;96033.97;5029778;28;19935;-44
2023/09/27 05:02:27;;;;;;;;;;;11.40;61.00;;;6.91;100.00;96028.31;5029918;28;19916;-44
2023/09/27 05:04:53;;;;;;;;;;;11.40;61.00;;;6.87;100.00;96026.38;5028699;28;19978;-46
2023/09/27 05:07:19;;;;;;;;;;;11.40;61.00;;;6.84;100.00;96034.78;5029311;28;19944;-45
2023/09/27 05:09:46;;;;;;;;;;;11.30;61.00;;;6.80;100.00;96023.84;5028079;28;20208;-48
2023/09/27 05:12:13;;;;;;;;;;;11.30;61.10;;;6.77;100.00;96024.28;5029649;28;19909;-47
2023/09/27 05:14:39;;;;;;;;;;;11.30;61.20;;;6.73;100.00;96031.06;5029052;28;19978;-44
2023/09/27 05:17:05;;;;;;;;;;;11.20;61.10;;;6.77;100.00;96031.41;5024298;28;20371;-43
2023/09/27 05:19:31;;;;;;;;;;;11.30;62.10;;;6.83;100.00;96027.84;5028440;28;19909;-47
2023/09/27 05:21:56;;;;;;;;;;;11.20;61.40;;;6.84;100.00;96032.94;5023076;28;20004;-48
2023/09/27 05:24:22;;;;;;;;;;;11.30;61.50;;;6.84;100.00;96024.97;5026940;28;19912;-44
2023/09/27 05:26:48;;;;;;;;;;;11.30;61.60;;;6.81;100.00;96030.75;5030520;28;19944;-46
2023/09/27 05:29:14;;;;;;;;;;;11.30;61.50;;;6.81;100.00;96027.28;5032605;28;20333;-43
2023/09/27 05:31:48;;;;;;;;;;;11.30;61.50;;;6.82;100.00;96020.94;5032541;28;19948;-50
2023/09/27 05:34:14;;;;;;;;;;;11.30;61.50;;;6.85;100.00;96020.50;5032020;28;20347;-46
2023/09/27 05:36:40;;;;;;;;;;;11.30;61.50;;;6.87;100.00;96021.06;5030939;28;20051;-49
2023/09/27 05:39:08;;;;;;;;;;;11.30;61.50;;;6.90;100.00;96020.63;5031529;28;20268;-46
2023/09/27 05:41:35;;;;;;;;;;;11.40;61.60;;;6.93;100.00;96023.59;5028296;28;19952;-47
2023/09/27 05:44:01;;;;;;;;;;;11.40;61.60;;;6.95;100.00;96018.06;5030686;28;19946;-46
2023/09/27 05:46:29;;;;;;;;;;;11.40;61.60;;;7.02;100.00;96028.53;5031769;28;20363;-41
2023/09/27 05:48:55;;;;;;;;;;;11.40;61.60;;;7.06;100.00;96027.06;5031255;28;19925;-42
2023/09/27 05:51:21;;;;;;;;;;;11.50;61.70;;;7.06;100.00;96035.81;5030543;28;19966;-43
2023/09/27 05:53:51;;;;;;;;;;;11.50;61.70;;;7.11;100.00;96035.09;5031495;28;20330;-42
2023/09/27 05:56:18;;;;;;;;;;;11.60;61.80;;;7.16;100.00;96041.31;5029679;28;19909;-48
2023/09/27 05:58:44;;;;;;;;;;;11.60;61.70;;;7.17;100.00;96040.28;5031014;28;19916;-50
2023/09/27 06:01:10;;;;;;;;;;;11.60;61.70;;;7.20;100.00;96036.38;5031408;28;19915;-49
2023/09/27 06:03:37;;;;;;;;;;;11.70;61.80;;;7.25;100.00;96039.13;5030122;28;19998;-48
2023/09/27 06:06:03;;;;;;;;;;;11.70;61.70;;;7.31;100.00;96032.91;5031409;28;19912;-47
2023/09/27 06:08:29;;;;;;;;;;;11.80;61.80;;;7.35;100.00;96038.53;5013265;28;20003;-48
2023/09/27 06:10:59;;;;;;;;;;;11.80;61.80;;;7.39;100.00;96040.47;5030081;28;19927;-50
2023/09/27 06:13:26;;;;;;;;;;;11.90;61.80;;;7.53;100.00;96056.97;5030829;28;19908;-48
2023/09/27 06:15:54;;;;;;;;;;;12.00;61.90;;;7.59;100.00;96048.06;5031684;28;20375;-49
2023/09/27 06:18:20;;;;;;;;;;;12.00;61.90;;;7.62;100.00;96044.97;5030281;28;19921;-47
2023/09/27 06:20:47;;;;;;;;;;;12.10;61.80;;;7.67;100.00;96051.41;5030421;28;20498;-50
2023/09/27 06:23:14;;;;;;;;;;;12.20;61.80;;;7.75;100.00;96051.84;5032103;28;20283;-47
2023/09/27 06:25:43;;;;;;;;;;;12.20;61.80;;;7.82;100.00;96052.50;5032142;28;19924;-41
2023/09/27 06:28:16;;;;;;;;;;;12.30;61.80;;;7.87;100.00;96059.78;5031629;28;19916;-41
2023/09/27 06:30:42;;;;;;;;;;;12.40;61.80;;;7.88;100.00;96061.38;5031892;28;19916;-41
2023/09/27 06:33:09;;;;;;;;;;;12.50;61.80;;;7.90;100.00;96061.94;5013260;28;19919;-50
2023/09/27 06:35:38;;;;;;;;;;;12.50;61.80;;;7.93;100.00;96065.97;5031067;28;19920;-51
2023/09/27 06:38:05;;;;;;;;;;;12.60;61.70;;;7.98;100.00;96066.06;5030852;28;19916;-48
2023/09/27 06:40:31;;;;;;;;;;;12.70;61.80;;;8.05;100.00;96061.41;5030811;28;19932;-44
2023/09/27 06:42:57;;;;;;;;;;;12.80;61.80;;;8.14;100.00;96062.66;5031703;28;19913;-48
2023/09/27 06:45:23;;;;;;;;;;;12.90;61.80;;;8.24;100.00;96056.72;5030001;28;19912;-46
2023/09/27 06:47:50;;;;;;;;;;;13.00;61.80;;;8.37;100.00;96056.44;5030586;28;20405;-43
2023/09/27 06:50:17;;;;;;;;;;;13.20;61.70;;;8.53;100.00;96054.91;5030666;28;20364;-41
2023/09/27 06:52:45;;;;;;;;;;;13.40;61.60;;;8.74;100.00;96064.81;5030039;28;19913;-45
2023/09/27 06:55:12;;;;;;;;;;;13.60;61.60;;;9.07;100.00;96062.41;5025723;28;19912;-42
2023/09/27 06:57:47;;;;;;;;;;;14.00;61.60;;;9.46;100.00;96058.72;5029463;28;19915;-43
2023/09/27 07:00:18;;;;;;;;;;;14.40;61.50;;;9.96;100.00;96055.09;5030896;28;20356;-43
2023/09/27 07:02:53;;;;;;;;;;;14.90;61.60;;;10.58;100.00;96055.72;5030446;28;19917;-44
2023/09/27 07:05:22;;;;;;;;;;;15.40;61.40;;;11.15;100.00;96063.09;5027325;28;19940;-44
2023/09/27 07:07:53;;;;;;;;;;;16.00;61.30;;;11.67;100.00;96064.22;5031121;28;20003;-45
2023/09/27 07:10:20;;;;;;;;;;;16.60;61.10;;;12.08;100.00;96070.56;5030244;28;20383;-45
2023/09/27 07:12:47;;;;;;;;;;;17.10;60.70;;;12.35;100.00;96065.06;5031256;28;19909;-43
2023/09/27 07:15:13;;;;;;;;;;;17.70;60.40;;;12.61;100.00;96073.13;5030002;28;19909;-45
2023/09/27 07:17:41;;;;;;;;;;;18.20;60.00;;;13.02;100.00;96078.50;5030343;28;19944;-49
2023/09/27 07:20:20;;;;;;;;;;;18.70;59.60;;;13.33;100.00;96079.31;5031230;28;20283;-45
2023/09/27 07:22:47;;;;;;;;;;;19.10;59.30;;;13.57;100.00;96080.34;5030406;28;19956;-47
2023/09/27 07:25:16;;;;;;;;;;;19.70;59.00;;;13.74;100.00;96077.34;5031483;28;19966;-47
2023/09/27 07:27:43;;;;;;;;;;;20.10;58.60;;;14.01;100.00;96077.00;5029351;28;19913;-46
2023/09/27 07:30:10;;;;;;;;;;;20.50;58.20;;;14.45;100.00;96070.88;5030796;28;19919;-48
2023/09/27 07:32:39;;;;;;;;;;;20.90;58.00;;;14.88;100.00;96065.00;5031109;28;20274;-46
2023/09/27 07:35:10;;;;;;;;;;;21.30;57.80;;;15.30;99.28;96067.06;5029820;28;19916;-44
2023/09/27 07:37:37;;;;;;;;;;;21.70;57.70;;;15.70;97.58;96063.22;5030457;28;19908;-44
2023/09/27 07:40:10;;;;;;;;;;;22.10;57.60;;;16.10;94.57;96061.13;5030159;28;19912;-42
2023/09/27 07:42:46;;;;;;;;;;;22.50;57.20;;;16.45;90.62;96058.25;5023354;28;20389;-48
2023/09/27 07:45:26;;;;;;;;;;;22.90;56.70;;;16.80;83.79;96067.75;5028207;28;20268;-49
2023/09/27 07:47:54;;;;;;;;;;;23.30;56.30;;;17.14;81.66;96069.38;5031007;28;19908;-47
2023/09/27 07:50:28;;;;;;;;;;;23.70;55.90;;;17.42;80.95;96060.25;5029845;28;19912;-46
2023/09/27 07:52:55;;;;;;;;;;;24.00;55.50;;;17.65;77.55;96066.59;5029605;28;19909;-46
2023/09/27 07:55:21;;;;;;;;;;;24.30;55.00;;;17.98;74.23;96058.44;5025642;28;19962;-45
2023/09/27 07:57:49;;;;;;;;;;;24.60;54.50;;;18.32;71.61;96058.03;5027986;28;19909;-46
2023/09/27 08:00:16;;;;;;;;;;;24.90;54.20;;;18.58;69.49;96058.25;5030641;28;19908;-44
2023/09/27 08:02:45;;;;;;;;;;;25.20;53.80;;;18.83;68.70;96061.53;5029927;28;19932;-44
2023/09/27 08:05:14;;;;;;;;;;;25.50;53.30;;;19.25;66.84;96059.47;5029676;28;19934;-44
2023/09/27 08:07:40;;;;;;;;;;;25.70;52.80;;;19.61;64.39;96051.22;5030298;28;20000;-47
2023/09/27 08:10:10;;;;;;;;;;;26.10;52.60;;;19.99;62.68;96043.44;5029850;28;19955;-45
2023/09/27 08:12:38;;;;;;;;;;;26.30;52.10;;;20.31;61.80;96038.78;5029987;28;19909;-45
2023/09/27 08:15:06;;;;;;;;;;;26.60;51.70;;;20.56;61.68;96039.97;5027383;28;19978;-45
2023/09/27 08:17:33;;;;;;;;;;;26.90;51.30;;;20.89;59.91;96042.97;5026648;28;19920;-45
2023/09/27 08:20:00;;;;;;;;;;;27.20;50.90;;;21.24;58.61;96043.72;5031016;28;19975;-45
2023/09/27 08:22:26;;;;;;;;;;;27.50;50.60;;;21.60;57.78;96037.16;5028003;28;19978;-47
2023/09/27 08:24:51;;;;;;;;;;;27.80;50.30;;;21.77;57.42;96039.00;5030369;28;19948;-46
2023/09/27 08:27:18;;;;;;;;;;;28.00;49.80;;;21.98;52.81;96041.78;5029523;28;19916;-45
2023/09/27 08:29:44;;;;;;;;;;;28.30;49.40;;;22.22;51.53;96034.97;5030192;28;19913;-45
2023/09/27 08:32:10;;;;;;;;;;;28.50;48.90;;;22.30;52.50;96029.50;5030141;28;19915;-46
2023/09/27 08:34:36;;;;;;;;;;;28.70;48.40;;;22.48;50.81;96019.34;5029262;28;19912;-48
2023/09/27 08:37:02;;;;;;;;;;;28.80;48.00;;;22.76;50.30;96024.25;5030279;28;19913;-45
2023/09/27 08:39:28;;;;;;;;;;;29.00;47.70;;;22.90;49.28;96015.81;5029433;28;19916;-47
2023/09/27 08:41:57;;;;;;;;;;;29.20;47.40;;;22.95;49.44;96023.78;5029944;28;19913;-45
2023/09/27 08:44:24;;;;;;;;;;;29.40;47.10;;;23.15;50.09;96014.81;5030820;28;19947;-43
2023/09/27 08:46:52;;;;;;;;;;;29.60;46.70;;;23.08;49.86;96015.34;5023871;28;20050;-47
2023/09/27 08:49:18;;;;;;;;;;;29.70;46.20;;;23.29;49.62;96007.16;5028863;28;19959;-44
2023/09/27 08:51:46;;;;;;;;;;;29.80;45.70;;;23.18;50.90;96005.19;5028731;28;20040;-44
2023/09/27 08:54:16;;;;;;;;;;;29.80;45.30;;;23.14;49.75;96001.56;5030093;28;19999;-52
2023/09/27 08:56:49;;;;;;;;;;;29.80;44.80;;;23.24;50.22;95995.69;5030722;28;19913;-49
2023/09/27 08:59:15;;;;;;;;;;;29.80;44.50;;;23.48;50.33;96000.41;5028772;28;19999;-52
2023/09/27 09:01:44;;;;;;;;;;;29.80;44.40;;;23.32;51.57;96000.25;5032552;28;20034;-48
2023/09/27 09:04:11;;;;;;;;;;;29.90;44.20;;;23.45;51.43;95999.16;5032739;28;20432;-45
2023/09/27 09:06:41;;;;;;;;;;;29.90;44.10;;;23.63;50.94;95994.31;5033480;28;20381;-47
2023/09/27 09:09:11;;;;;;;;;;;30.00;44.00;;;23.56;50.60;95989.41;5033240;28;20650;-46
2023/09/27 09:11:49;;;;;;;;;;;30.10;43.70;;;23.47;51.41;95982.50;5033692;28;19912;-50
2023/09/27 09:14:22;;;;;;;;;;;30.10;43.40;;;23.66;51.23;95982.75;5033392;28;19919;-49
2023/09/27 09:16:52;;;;;;;;;;;30.20;43.30;;;23.80;50.25;95971.56;5032578;28;19913;-44
2023/09/27 09:19:24;;;;;;;;;;;30.20;43.20;;;23.73;51.00;95977.56;5033682;28;20000;-46
2023/09/27 09:22:03;;;;;;;;;;;30.30;43.00;;;23.88;50.55;95975.28;5032961;28;20066;-44
2023/09/27 09:24:31;;;;;;;;;;;30.30;42.90;;;23.97;51.60;95968.63;5029092;28;19909;-52
2023/09/27 09:27:09;;;;;;;;;;;30.40;42.70;;;24.27;49.30;95968.34;5032400;28;19924;-48
2023/09/27 09:29:47;;;;;;;;;;;30.60;42.80;;;24.31;48.80;95968.44;5028927;28;19992;-43
2023/09/27 09:32:18;;;;;;;;;;;30.70;42.70;;;24.55;48.75;95960.25;5031680;28;19923;-45
2023/09/27 09:34:52;;;;;;;;;;;30.80;42.50;;;24.76;49.52;95962.00;5032241;28;19923;-47
2023/09/27 09:37:24;;;;;;;;;;;31.00;42.40;;;24.61;49.78;95947.97;5027444;28;19981;-50
2023/09/27 09:39:52;;;;;;;;;;;31.20;42.10;;;24.81;47.97;95948.13;5032349;28;19913;-47
2023/09/27 09:42:34;;;;;;;;;;;31.30;41.90;;;24.90;47.82;95949.56;5033242;28;20359;-43
2023/09/27 09:45:12;;;;;;;;;;;31.40;41.50;;;25.04;47.55;95948.34;5032429;28;20342;-44
2023/09/27 09:47:41;;;;;;;;;;;31.50;41.20;;;24.88;47.84;95951.03;5033379;28;19912;-47
2023/09/27 09:50:17;;;;;;;;;;;31.60;40.90;;;24.97;49.59;95937.28;5033040;28;20336;-44
2023/09/27 09:52:57;;;;;;;;;;;31.70;40.80;;;25.04;48.41;95932.81;5025646;28;19952;-44
2023/09/27 09:55:29;;;;;;;;;;;31.80;40.70;;;25.03;48.25;95933.16;5030385;28;19913;-45
2023/09/27 09:57:59;;;;;;;;;;;31.90;40.40;;;24.99;49.45;95927.63;5027691;28;19917;-47
2023/09/27 10:00:26;;;;;;;;;;;31.90;40.20;;;24.93;49.23;95923.56;5026776;28;19916;-47
2023/09/27 10:03:04;;;;;;;;;;;32.10;40.10;;;24.99;48.84;95919.44;5014059;28;19915;-51
2023/09/27 10:05:53;;;;;;;;;;;32.10;40.00;;;25.10;47.86;95920.53;5032142;28;19951;-50
2023/09/27 10:08:20;;;;;;;;;;;32.20;39.90;;;25.28;48.26;95923.72;5008301;28;19909;-46
2023/09/27 10:10:47;;;;;;;;;;;32.30;39.80;;;25.27;47.95;95913.97;5028794;28;19923;-49
2023/09/27 10:13:14;;;;;;;;;;;32.40;39.60;;;25.26;48.66;95914.31;5032332;28;19915;-50
2023/09/27 10:15:42;;;;;;;;;;;32.50;39.40;;;25.09;48.52;95910.75;5031131;28;20367;-49
2023/09/27 10:18:23;;;;;;;;;;;32.60;39.40;;;25.44;48.22;95912.81;5031328;28;20299;-48
2023/09/27 10:21:13;;;;;;;;;;;32.70;39.40;;;25.65;47.52;95903.56;5039608;23;21109;-51
2023/09/27 10:23:47;;;;;;;;;;;32.90;39.30;;;25.52;47.77;95900.94;5005938;28;19970;-55
2023/09/27 10:26:28;;;;;;;;;;;33.00;39.00;;;25.62;47.71;95897.69;5017694;28;19913;-53
2023/09/27 10:31:30;;;;;;;;;;;33.10;38.60;;;25.21;47.21;95893.56;5020761;28;19912;-54
2023/09/27 10:33:56;;;;;;;;;;;33.10;38.50;;;24.80;49.74;95889.34;5010011;28;19916;-57
2023/09/27 10:36:22;;;;;;;;;;;33.00;38.20;;;24.59;49.74;95876.72;5017738;28;20003;-57
2023/09/27 10:38:50;;;;;;;;;;;33.00;38.00;;;24.46;50.41;95873.28;5022973;28;19955;-55
2023/09/27 10:41:43;;;;;;;;;;;32.90;37.90;;;24.46;50.01;95872.47;5016542;28;19913;-53
2023/09/27 10:44:09;;;;;;;;;;;32.70;37.70;;;24.48;51.49;95875.66;5023652;28;19908;-57
2023/09/27 10:46:47;;;;;;;;;;;32.70;37.70;;;24.59;50.25;95865.06;5025814;28;19994;-57
2023/09/27 10:49:20;;;;;;;;;;;32.60;37.70;;;24.47;50.84;95863.16;5031630;28;19909;-53
2023/09/27 10:51:46;;;;;;;;;;;32.60;37.60;;;24.58;50.24;95860.75;4996042;28;20428;-56
2023/09/27 10:54:13;;;;;;;;;;;32.60;37.60;;;24.65;51.29;95858.22;5026259;28;19909;-54
2023/09/27 10:56:44;;;;;;;;;;;32.60;37.70;;;24.59;50.45;95857.66;5022993;28;20371;-53
2023/09/27 10:59:11;;;;;;;;;;;32.70;37.60;;;24.61;51.21;95858.13;5018066;28;19908;-55
2023/09/27 11:01:47;;;;;;;;;;;32.70;37.70;;;24.32;52.60;95845.63;5027094;28;20054;-55
2023/09/27 11:04:13;;;;;;;;;;;32.70;37.60;;;24.76;51.94;95848.41;5026620;28;19924;-52
2023/09/27 11:06:39;;;;;;;;;;;32.80;37.70;;;24.54;50.86;95844.31;5031318;28;19908;-55
2023/09/27 11:09:12;;;;;;;;;;;32.80;37.60;;;24.59;50.82;95843.25;5029275;28;20229;-53
2023/09/27 11:11:43;;;;;;;;;;;32.80;37.40;;;24.59;50.34;95849.50;5027834;28;19990;-56
2023/09/27 11:14:09;;;;;;;;;;;32.90;37.50;;;24.55;50.43;95836.94;5031403;28;19908;-57
2023/09/27 11:16:35;;;;;;;;;;;33.00;37.50;;;24.38;50.92;95838.00;5024424;28;19909;-55
2023/09/27 11:19:02;;;;;;;;;;;33.00;37.40;;;24.52;51.22;95832.19;5030440;28;20389;-56
2023/09/27 11:21:29;;;;;;;;;;;33.20;37.50;;;24.80;51.16;95830.22;5021025;28;19921;-55
2023/09/27 11:23:55;;;;;;;;;;;33.30;37.40;;;24.62;51.15;95820.78;5025692;28;19932;-56